createdAt,value
2022-08-26T00:00:28.252Z,1.30
2022-08-26T00:03:14.507Z,1.27
2022-08-26T00:06:00.688Z,1.27
2022-08-26T00:08:46.500Z,1.58
2022-08-26T00:11:32.464Z,1.30
2022-08-26T00:14:17.941Z,1.23
2022-08-26T00:17:04.025Z,1.20
2022-08-26T00:19:50.801Z,1.25
2022-08-26T00:22:38.296Z,1.80
2022-08-26T00:25:24.336Z,1.50
2022-08-26T00:28:10.962Z,1.35
2022-08-26T00:30:56.857Z,1.42
2022-08-26T00:33:42.898Z,1.20
2022-08-26T00:36:30.231Z,1.05
2022-08-26T00:39:15.509Z,1.30
2022-08-26T00:42:01.951Z,1.00
2022-08-26T00:44:47.881Z,1.70
2022-08-26T00:47:44.004Z,1.13
2022-08-26T00:50:33.072Z,1.10
2022-08-26T00:53:24.145Z,1.15
2022-08-26T00:56:38.411Z,1.33
2022-08-26T00:59:25.273Z,1.05
2022-08-26T01:02:20.975Z,1.25
2022-08-26T01:05:08.866Z,1.10
2022-08-26T01:07:54.308Z,1.30
2022-08-26T01:10:39.920Z,1.00
2022-08-26T01:13:25.323Z,0.90
2022-08-26T01:16:13.883Z,0.98
2022-08-26T01:19:09.610Z,0.95
2022-08-26T01:22:20.160Z,1.65
2022-08-26T01:25:06.453Z,1.98
2022-08-26T01:27:57.809Z,1.58
2022-08-26T01:30:44.893Z,0.88
2022-08-26T01:33:42.010Z,0.80
2022-08-26T01:36:29.323Z,1.42
2022-08-26T01:39:14.780Z,0.80
2022-08-26T01:42:03.028Z,0.88
2022-08-26T01:44:57.652Z,0.90
2022-08-26T01:47:43.096Z,0.90
2022-08-26T01:50:31.561Z,0.80
2022-08-26T01:53:19.867Z,0.98
2022-08-26T01:56:10.117Z,0.90
2022-08-26T01:58:58.073Z,1.10
2022-08-26T02:01:43.680Z,0.80
2022-08-26T02:04:41.445Z,0.80
2022-08-26T02:07:28.605Z,1.02
2022-08-26T02:10:15.099Z,0.75
2022-08-26T02:13:00.409Z,1.00
2022-08-26T02:15:46.595Z,0.95
2022-08-26T02:18:36.567Z,1.00
2022-08-26T02:21:22.850Z,0.90
2022-08-26T02:24:17.538Z,0.80
2022-08-26T02:27:03.721Z,0.60
2022-08-26T02:29:53.548Z,0.70
2022-08-26T02:32:40.236Z,0.55
2022-08-26T02:35:26.985Z,1.10
2022-08-26T02:38:12.313Z,1.10
2022-08-26T02:40:58.045Z,1.00
2022-08-26T02:43:43.767Z,1.02
2022-08-26T02:46:30.246Z,0.70
2022-08-26T02:49:17.169Z,0.90
2022-08-26T02:52:02.894Z,0.90
2022-08-26T02:54:49.628Z,1.02
2022-08-26T02:57:35.385Z,0.70
2022-08-26T03:00:20.923Z,0.70
2022-08-26T03:03:06.196Z,0.90
2022-08-26T03:05:52.904Z,1.15
2022-08-26T03:08:39.956Z,1.00
2022-08-26T03:11:29.638Z,0.90
2022-08-26T03:17:02.922Z,1.00
2022-08-26T03:19:54.233Z,1.10
2022-08-26T03:22:42.613Z,0.70
2022-08-26T03:25:27.972Z,1.10
2022-08-26T03:28:13.841Z,0.70
2022-08-26T03:31:03.873Z,0.95
2022-08-26T03:33:49.574Z,0.70
2022-08-26T03:36:37.591Z,0.73
2022-08-26T03:39:22.980Z,0.90
2022-08-26T03:42:08.569Z,0.80
2022-08-26T03:44:57.096Z,1.13
2022-08-26T03:47:42.995Z,0.73
2022-08-26T03:50:28.166Z,0.52
2022-08-26T03:53:14.177Z,0.90
2022-08-26T03:55:59.539Z,0.80
2022-08-26T03:58:45.127Z,0.95
2022-08-26T04:01:31.827Z,0.90
2022-08-26T04:04:18.290Z,0.90
2022-08-26T04:07:09.209Z,0.95
2022-08-26T04:09:56.205Z,0.88
2022-08-26T04:12:41.563Z,1.15
2022-08-26T04:15:27.491Z,1.25
2022-08-26T04:18:12.376Z,1.08
2022-08-26T04:20:57.958Z,0.90
2022-08-26T04:23:47.784Z,0.90
2022-08-26T04:26:39.489Z,0.90
2022-08-26T04:29:28.274Z,0.80
2022-08-26T04:32:13.768Z,1.02
2022-08-26T04:34:59.187Z,1.10
2022-08-26T04:37:48.933Z,0.82
2022-08-26T04:40:34.460Z,0.80
2022-08-26T04:43:20.440Z,0.77
2022-08-26T04:46:06.881Z,0.77
2022-08-26T04:48:53.608Z,1.00
2022-08-26T04:51:39.648Z,1.20
2022-08-26T04:54:26.113Z,1.10
2022-08-26T04:57:11.206Z,1.00
2022-08-26T04:59:56.686Z,1.02
2022-08-26T05:02:42.493Z,1.60
2022-08-26T05:05:28.157Z,1.02
2022-08-26T05:08:15.453Z,1.00
2022-08-26T05:11:05.409Z,1.38
2022-08-26T05:13:51.142Z,1.27
2022-08-26T05:16:40.309Z,1.40
2022-08-26T05:19:25.461Z,1.27
2022-08-26T05:22:14.562Z,1.20
2022-08-26T05:25:00.759Z,1.13
2022-08-26T05:27:45.953Z,1.15
2022-08-26T05:30:31.681Z,0.80
2022-08-26T05:33:18.370Z,0.82
2022-08-26T05:36:10.421Z,0.60
2022-08-26T05:38:57.880Z,0.88
2022-08-26T05:41:44.765Z,0.80
2022-08-26T05:44:30.394Z,1.00
2022-08-26T05:47:35.791Z,0.77
2022-08-26T05:50:21.999Z,0.82
2022-08-26T05:53:10.620Z,1.05
2022-08-26T05:55:56.408Z,1.05
2022-08-26T05:58:43.672Z,1.20
2022-08-26T06:01:35.960Z,0.90
2022-08-26T06:04:21.929Z,0.70
2022-08-26T06:07:07.640Z,1.17
2022-08-26T06:10:21.372Z,1.10
2022-08-26T06:13:09.377Z,1.60
2022-08-26T06:16:02.403Z,1.02
2022-08-26T06:18:49.179Z,0.88
2022-08-26T06:21:39.046Z,1.13
2022-08-26T06:24:43.714Z,0.80
2022-08-26T06:27:32.824Z,0.90
2022-08-26T06:30:18.887Z,1.10
2022-08-26T06:33:04.524Z,1.25
2022-08-26T06:35:51.413Z,1.15
2022-08-26T06:38:37.177Z,0.80
2022-08-26T06:41:23.382Z,0.80
2022-08-26T06:44:09.046Z,0.90
2022-08-26T06:46:55.142Z,0.80
2022-08-26T06:49:40.952Z,0.80
2022-08-26T06:52:26.409Z,0.70
2022-08-26T06:55:11.689Z,0.75
2022-08-26T06:57:58.287Z,1.05
2022-08-26T07:00:47.515Z,0.73
2022-08-26T07:03:39.575Z,0.95
2022-08-26T07:06:27.337Z,0.80
2022-08-26T07:09:12.997Z,0.85
2022-08-26T07:11:59.547Z,0.70
2022-08-26T07:14:47.505Z,0.75
2022-08-26T07:17:33.324Z,0.88
2022-08-26T07:20:19.669Z,0.90
2022-08-26T07:23:04.959Z,0.73
2022-08-26T07:25:55.240Z,0.88
2022-08-26T07:28:41.045Z,0.70
2022-08-26T07:31:29.706Z,0.70
2022-08-26T07:34:17.155Z,0.60
2022-08-26T07:37:04.165Z,0.70
2022-08-26T07:39:54.246Z,0.70
2022-08-26T07:42:40.552Z,0.65
2022-08-26T07:45:25.613Z,0.85
2022-08-26T07:48:12.245Z,0.88
2022-08-26T07:50:58.729Z,0.70
2022-08-26T07:53:47.923Z,0.63
2022-08-26T07:56:37.396Z,0.60
2022-08-26T07:59:24.111Z,0.70
2022-08-26T08:02:09.182Z,0.60
2022-08-26T08:04:57.857Z,0.60
2022-08-26T08:07:46.877Z,0.85
2022-08-26T08:10:33.926Z,0.75
2022-08-26T08:13:22.450Z,0.90
2022-08-26T08:16:17.970Z,0.60
2022-08-26T08:19:14.871Z,0.82
2022-08-26T08:22:17.882Z,0.80
2022-08-26T08:25:34.217Z,0.70
2022-08-26T08:28:23.017Z,0.60
2022-08-26T08:31:56.846Z,0.65
2022-08-26T08:34:50.002Z,0.80
2022-08-26T08:37:40.139Z,0.70
2022-08-26T08:40:27.077Z,0.40
2022-08-26T08:43:38.501Z,0.70
2022-08-26T08:46:24.056Z,0.60
2022-08-26T08:49:14.806Z,0.70
2022-08-26T08:52:19.328Z,0.60
2022-08-26T08:55:10.315Z,0.60
2022-08-26T08:58:10.319Z,0.85
2022-08-26T09:01:02.548Z,0.60
2022-08-26T09:04:19.168Z,0.60
2022-08-26T09:07:09.913Z,0.60
2022-08-26T09:10:00.931Z,0.40
2022-08-26T09:12:47.492Z,0.70
2022-08-26T09:15:50.610Z,0.70
2022-08-26T09:18:55.250Z,0.50
2022-08-26T09:21:41.098Z,0.90
2022-08-26T09:24:29.273Z,0.60
2022-08-26T09:27:42.732Z,0.82
2022-08-26T09:30:32.855Z,0.70
2022-08-26T09:33:19.253Z,0.70
2022-08-26T09:36:39.476Z,0.70
2022-08-26T09:39:38.136Z,0.70
2022-08-26T09:42:25.367Z,0.50
2022-08-26T09:45:13.062Z,0.60
2022-08-26T09:48:01.615Z,0.60
2022-08-26T09:51:23.915Z,0.73
2022-08-26T09:54:25.872Z,0.85
2022-08-26T09:57:29.330Z,0.68
2022-08-26T10:00:31.789Z,1.00
2022-08-26T10:03:26.277Z,0.70
2022-08-26T10:06:17.693Z,0.82
2022-08-26T10:09:10.838Z,1.23
2022-08-26T10:12:03.981Z,0.80
2022-08-26T10:14:57.031Z,0.90
2022-08-26T10:17:55.798Z,1.08
2022-08-26T10:20:51.343Z,1.00
2022-08-26T10:23:42.266Z,1.10
2022-08-26T10:26:55.093Z,1.05
2022-08-26T10:29:45.621Z,1.00
2022-08-26T10:33:06.589Z,1.20
2022-08-26T10:36:28.159Z,1.30
2022-08-26T10:39:36.833Z,1.10
2022-08-26T10:42:26.039Z,1.50
2022-08-26T10:48:12.455Z,1.13
2022-08-26T10:51:00.124Z,0.93
2022-08-26T10:54:01.124Z,1.02
2022-08-26T10:57:02.636Z,0.90
2022-08-26T11:00:29.815Z,1.02
2022-08-26T11:03:36.060Z,1.00
2022-08-26T11:06:28.121Z,0.80
2022-08-26T11:09:45.162Z,0.80
2022-08-26T11:12:37.232Z,0.93
2022-08-26T11:15:29.566Z,1.00
2022-08-26T11:21:52.215Z,0.77
2022-08-26T11:24:52.755Z,1.10
2022-08-26T11:27:38.430Z,1.00
2022-08-26T11:30:24.142Z,0.80
2022-08-26T11:33:10.490Z,0.80
2022-08-26T11:35:55.853Z,0.80
2022-08-26T11:38:42.614Z,1.15
2022-08-26T11:41:31.187Z,1.40
2022-08-26T11:44:23.989Z,1.60
2022-08-26T11:47:15.934Z,1.88
2022-08-26T11:50:14.356Z,1.50
2022-08-26T11:53:04.308Z,1.10
2022-08-26T11:55:54.443Z,0.88
2022-08-26T11:58:44.780Z,1.10
2022-08-26T12:01:35.490Z,0.73
2022-08-26T12:04:34.187Z,0.90
2022-08-26T12:07:24.976Z,1.75
2022-08-26T12:10:22.699Z,1.00
2022-08-26T12:13:17.751Z,1.00
2022-08-26T12:16:03.411Z,0.77
2022-08-26T12:18:50.568Z,0.82
2022-08-26T12:21:37.255Z,1.00
2022-08-26T12:24:26.309Z,0.80
2022-08-26T12:27:21.062Z,0.88
2022-08-26T12:30:08.492Z,1.00
2022-08-26T12:33:21.922Z,0.80
2022-08-26T12:36:08.754Z,0.80
2022-08-26T12:38:58.260Z,0.80
2022-08-26T12:41:58.716Z,1.00
2022-08-26T12:44:53.882Z,0.93
2022-08-26T12:47:44.736Z,0.85
2022-08-26T12:50:35.956Z,0.95
2022-08-26T12:53:23.748Z,0.90
2022-08-26T12:56:29.749Z,0.90
2022-08-26T12:59:18.211Z,0.90
2022-08-26T13:02:03.804Z,1.10
2022-08-26T13:05:00.778Z,1.17
2022-08-26T13:08:13.838Z,1.00
2022-08-26T13:11:40.485Z,1.00
2022-08-26T13:14:26.973Z,0.93
2022-08-26T13:17:13.252Z,1.40
2022-08-26T13:20:03.565Z,1.20
2022-08-26T13:22:53.869Z,1.10
2022-08-26T13:25:44.981Z,1.00
2022-08-26T13:28:30.272Z,1.05
2022-08-26T13:31:16.420Z,0.90
2022-08-26T13:34:04.407Z,1.58
2022-08-26T13:36:54.065Z,1.17
2022-08-26T13:39:41.749Z,1.02
2022-08-26T13:42:27.137Z,0.98
2022-08-26T13:45:14.017Z,1.95
2022-08-26T13:48:00.406Z,1.50
2022-08-26T13:50:46.861Z,1.40
2022-08-26T13:53:32.658Z,1.15
2022-08-26T13:56:18.935Z,0.80
2022-08-26T13:59:06.564Z,1.02
2022-08-26T14:01:52.363Z,1.10
2022-08-26T14:04:37.828Z,1.10
2022-08-26T14:07:23.673Z,1.00
2022-08-26T14:10:09.698Z,1.38
2022-08-26T14:12:57.542Z,1.00
2022-08-26T14:15:43.380Z,1.10
2022-08-26T14:18:36.322Z,1.00
2022-08-26T14:21:25.633Z,1.10
2022-08-26T14:24:11.569Z,1.10
2022-08-26T14:26:57.110Z,1.00
2022-08-26T14:29:42.727Z,1.20
2022-08-26T14:32:29.435Z,1.13
2022-08-26T14:35:22.893Z,1.30
2022-08-26T14:38:08.432Z,1.02
2022-08-26T14:40:53.863Z,1.10
2022-08-26T14:43:46.475Z,1.10
2022-08-26T14:46:43.608Z,0.95
2022-08-26T14:49:33.086Z,1.10
2022-08-26T14:52:18.721Z,1.42
2022-08-26T14:55:07.275Z,1.00
2022-08-26T14:57:54.087Z,1.10
2022-08-26T15:00:39.421Z,1.00
2022-08-26T15:03:24.886Z,1.15
2022-08-26T15:06:10.581Z,0.85
2022-08-26T15:08:56.196Z,1.20
2022-08-26T15:11:42.041Z,1.35
2022-08-26T15:14:32.670Z,1.33
2022-08-26T15:17:18.609Z,1.30
2022-08-26T15:20:06.731Z,1.27
2022-08-26T15:22:52.398Z,1.40
2022-08-26T15:25:39.732Z,1.20
2022-08-26T15:28:25.155Z,1.08
2022-08-26T15:31:11.139Z,1.10
2022-08-26T15:33:59.711Z,1.00
2022-08-26T15:36:47.088Z,1.42
2022-08-26T15:39:32.801Z,1.40
2022-08-26T15:42:18.325Z,1.50
2022-08-26T15:45:03.837Z,1.60
2022-08-26T15:48:00.791Z,1.55
2022-08-26T15:51:01.419Z,1.08
2022-08-26T15:53:47.540Z,1.40
2022-08-26T15:56:36.688Z,1.45
2022-08-26T15:59:22.657Z,1.50
2022-08-26T16:02:08.590Z,1.42
2022-08-26T16:04:54.047Z,1.00
2022-08-26T16:07:40.461Z,1.27
2022-08-26T16:10:25.837Z,1.00
2022-08-26T16:13:14.374Z,1.48
2022-08-26T16:16:01.386Z,1.67
2022-08-26T16:18:50.944Z,1.15
2022-08-26T16:21:36.394Z,1.35
2022-08-26T16:24:24.911Z,1.40
2022-08-26T16:27:12.997Z,1.30
2022-08-26T16:29:58.713Z,1.30
2022-08-26T16:32:44.342Z,1.10
2022-08-26T16:35:29.629Z,1.90
2022-08-26T16:38:15.195Z,1.60
2022-08-26T16:41:01.636Z,1.92
2022-08-26T16:43:47.091Z,1.35
2022-08-26T16:46:33.470Z,1.50
2022-08-26T16:49:19.329Z,1.90
2022-08-26T16:52:05.078Z,2.00
2022-08-26T16:54:50.324Z,1.73
2022-08-26T16:57:44.375Z,1.88
2022-08-26T17:00:32.972Z,1.70
2022-08-26T17:03:18.363Z,2.40
2022-08-26T17:06:03.740Z,2.17
2022-08-26T17:08:49.356Z,1.75
2022-08-26T17:11:36.355Z,1.80
2022-08-26T17:14:21.727Z,1.80
2022-08-26T17:17:07.431Z,1.40
2022-08-26T17:19:52.433Z,1.70
2022-08-26T17:22:44.386Z,1.70
2022-08-26T17:28:19.201Z,1.60
2022-08-26T17:31:05.589Z,1.50
2022-08-26T17:33:53.739Z,1.83
2022-08-26T17:36:39.595Z,1.40
2022-08-26T17:39:25.020Z,1.30
2022-08-26T17:42:13.650Z,1.35
2022-08-26T17:44:59.004Z,1.40
2022-08-26T17:47:45.325Z,1.50
2022-08-26T17:50:30.863Z,1.42
2022-08-26T17:53:18.918Z,1.58
2022-08-26T17:56:11.984Z,1.65
2022-08-26T17:59:02.403Z,1.80
2022-08-26T18:01:49.711Z,1.43
2022-08-26T18:04:35.501Z,1.48
2022-08-26T18:07:21.185Z,1.60
2022-08-26T18:10:12.931Z,1.60
2022-08-26T18:12:58.435Z,1.60
2022-08-26T18:15:46.351Z,1.30
2022-08-26T18:18:33.051Z,1.70
2022-08-26T18:21:23.882Z,1.95
2022-08-26T18:24:13.813Z,1.38
2022-08-26T18:26:59.431Z,1.50
2022-08-26T18:29:48.406Z,1.45
2022-08-26T18:32:33.766Z,1.40
2022-08-26T18:35:21.098Z,1.70
2022-08-26T18:38:10.787Z,1.17
2022-08-26T18:40:56.869Z,1.40
2022-08-26T18:43:42.388Z,1.48
2022-08-26T18:46:28.320Z,1.60
2022-08-26T18:49:15.152Z,1.10
2022-08-26T18:52:00.447Z,1.30
2022-08-26T18:54:46.343Z,1.50
2022-08-26T18:57:31.766Z,1.67
2022-08-26T19:00:17.543Z,1.38
2022-08-26T19:03:03.142Z,1.40
2022-08-26T19:05:49.295Z,1.75
2022-08-26T19:08:34.800Z,1.50
2022-08-26T19:11:31.853Z,1.60
2022-08-26T19:14:18.640Z,1.42
2022-08-26T19:17:04.787Z,1.60
2022-08-26T19:19:50.644Z,1.50
2022-08-26T19:22:36.267Z,1.55
2022-08-26T19:25:21.779Z,1.30
2022-08-26T19:28:07.164Z,1.88
2022-08-26T19:30:53.244Z,1.20
2022-08-26T19:33:41.785Z,1.50
2022-08-26T19:36:28.544Z,1.20
2022-08-26T19:39:13.729Z,1.40
2022-08-26T19:42:00.301Z,1.40
2022-08-26T19:45:04.380Z,1.50
2022-08-26T19:47:49.927Z,2.38
2022-08-26T19:50:35.131Z,1.80
2022-08-26T19:53:20.607Z,2.35
2022-08-26T19:56:06.109Z,1.67
2022-08-26T19:58:52.070Z,1.48
2022-08-26T20:01:38.102Z,1.33
2022-08-26T20:04:23.614Z,1.40
2022-08-26T20:07:10.403Z,2.75
2022-08-26T20:09:57.345Z,2.45
2022-08-26T20:12:43.533Z,1.80
2022-08-26T20:15:29.242Z,1.60
2022-08-26T20:18:33.585Z,1.60
2022-08-26T20:21:27.860Z,1.67
2022-08-26T20:24:17.009Z,1.15
2022-08-26T20:27:06.945Z,1.60
2022-08-26T20:29:56.253Z,1.63
2022-08-26T20:32:42.311Z,1.30
2022-08-26T20:35:28.083Z,1.30
2022-08-26T20:38:15.198Z,1.17
2022-08-26T20:41:01.689Z,1.10
2022-08-26T20:43:47.373Z,1.10
2022-08-26T20:46:34.611Z,1.25
2022-08-26T20:49:20.372Z,1.30
2022-08-26T20:52:05.927Z,1.38
2022-08-26T20:54:51.372Z,1.55
2022-08-26T20:57:37.356Z,1.52
2022-08-26T21:00:24.544Z,1.40
2022-08-26T21:03:12.159Z,1.40
2022-08-26T21:05:57.651Z,1.13
2022-08-26T21:08:43.471Z,1.10
2022-08-26T21:11:30.948Z,1.35
2022-08-26T21:14:17.550Z,1.33
2022-08-26T21:17:03.881Z,1.38
2022-08-26T21:19:49.552Z,1.20
2022-08-26T21:22:35.077Z,1.75
2022-08-26T21:25:20.732Z,1.50
2022-08-26T21:28:06.052Z,1.60
2022-08-26T21:30:51.474Z,1.17
2022-08-26T21:33:37.774Z,1.88
2022-08-26T21:36:22.881Z,1.17
2022-08-26T21:39:11.720Z,1.20
2022-08-26T21:41:58.853Z,1.80
2022-08-26T21:44:44.864Z,1.35
2022-08-26T21:47:36.359Z,1.70
2022-08-26T21:50:22.199Z,1.10
2022-08-26T21:53:07.823Z,1.20
2022-08-26T21:55:53.259Z,1.40
2022-08-26T21:58:39.289Z,1.98
2022-08-26T22:01:26.603Z,1.35
2022-08-26T22:04:12.291Z,2.67
2022-08-26T22:06:58.581Z,2.10
2022-08-26T22:09:44.444Z,1.67
2022-08-26T22:12:30.191Z,1.10
2022-08-26T22:15:15.880Z,1.50
2022-08-26T22:18:04.646Z,1.17
2022-08-26T22:20:50.357Z,1.10
2022-08-26T22:23:38.014Z,1.10
2022-08-26T22:26:26.021Z,1.10
2022-08-26T22:29:12.216Z,1.10
2022-08-26T22:31:57.607Z,1.20
2022-08-26T22:34:42.927Z,1.13
2022-08-26T22:37:28.381Z,1.10
2022-08-26T22:40:14.080Z,1.27
2022-08-26T22:43:00.405Z,1.20
2022-08-26T22:45:48.918Z,0.88
2022-08-26T22:48:34.457Z,1.30
2022-08-26T22:51:20.503Z,1.13
2022-08-26T22:54:06.560Z,0.90
2022-08-26T22:56:52.051Z,1.40
2022-08-26T22:59:37.678Z,1.15
2022-08-26T23:02:22.886Z,1.42
2022-08-26T23:05:09.400Z,1.00
2022-08-26T23:07:56.224Z,1.00
2022-08-26T23:10:44.655Z,1.10
2022-08-26T23:13:30.104Z,1.25
2022-08-26T23:16:15.724Z,1.10
2022-08-26T23:19:01.007Z,1.00
2022-08-26T23:21:46.943Z,0.80
2022-08-26T23:24:33.254Z,0.95
2022-08-26T23:27:18.748Z,1.05
2022-08-26T23:30:09.909Z,1.10
2022-08-26T23:32:55.236Z,1.15
2022-08-26T23:35:40.667Z,1.00
2022-08-26T23:38:26.411Z,0.93
2022-08-26T23:41:11.996Z,0.70
2022-08-26T23:44:02.861Z,1.00
2022-08-26T23:46:49.017Z,1.10
2022-08-26T23:49:35.620Z,1.60
2022-08-26T23:52:39.530Z,1.00
2022-08-26T23:55:25.514Z,1.10
2022-08-26T23:58:11.355Z,1.40
